Time;durP1;ratioP1;P1;durP2;ratioP2;P2;SDS_P1;SDS_P2;PMS_P1;PMS_P2;Temp;Humidity;BMP_temperature;BMP_pressure;BME280_temperature;BME280_humidity;BME280_pressure;Samples;Min_cycle;Max_cycle;Signal;HPM_P1;HPM_P2
2024/02/18 00:02:59;;;;;;;5.20;2.25;;;;;;;8.17;67.17;101676.78;10303541;28;20142;-61
2024/02/18 00:08:01;;;;;;;4.95;3.08;;;;;;;8.21;67.20;101672.34;10307139;28;20054;-62
2024/02/18 00:13:05;;;;;;;5.63;2.67;;;;;;;8.24;67.02;101661.84;10304204;28;20050;-62
2024/02/18 00:18:07;;;;;;;4.60;2.70;;;;;;;8.21;67.31;101662.78;10307206;28;20070;-61
2024/02/18 00:23:11;;;;;;;5.40;2.90;;;;;;;8.21;67.01;101659.31;10289401;28;20080;-61
2024/02/18 00:28:13;;;;;;;9.90;3.95;;;;;;;8.19;66.91;101653.28;10304730;28;21072;-61
2024/02/18 00:33:15;;;;;;;5.45;3.00;;;;;;;8.12;67.21;101651.72;10286997;28;20053;-61
2024/02/18 00:38:18;;;;;;;6.80;3.33;;;;;;;8.14;67.11;101642.94;10306228;28;20090;-61
2024/02/18 00:43:20;;;;;;;4.82;2.05;;;;;;;8.11;67.06;101636.94;10303080;28;20057;-61
2024/02/18 00:48:22;;;;;;;4.88;2.83;;;;;;;8.14;66.96;101629.09;10288144;28;20410;-60
2024/02/18 00:53:24;;;;;;;5.95;2.72;;;;;;;8.06;67.06;101618.78;10303879;28;20069;-61
2024/02/18 00:58:26;;;;;;;7.65;2.80;;;;;;;8.04;66.81;101634.44;10308821;28;20125;-61
2024/02/18 01:03:28;;;;;;;5.10;2.60;;;;;;;7.91;67.14;101627.81;10294443;28;20042;-61
2024/02/18 01:08:30;;;;;;;5.07;2.60;;;;;;;7.86;66.97;101629.66;10305134;28;20517;-60
2024/02/18 01:13:33;;;;;;;41.78;4.00;;;;;;;7.79;66.92;101622.00;10289283;28;20046;-60
2024/02/18 01:18:42;;;;;;;34.13;3.47;;;;;;;7.75;66.89;101622.97;10300073;28;20419;-60
2024/02/18 01:23:44;;;;;;;7.10;2.65;;;;;;;7.75;67.08;101620.38;10304033;28;20054;-61
2024/02/18 01:28:46;;;;;;;7.35;3.03;;;;;;;7.71;67.42;101627.38;10299414;28;20599;-60
2024/02/18 01:33:48;;;;;;;21.15;4.43;;;;;;;7.78;67.17;101618.53;10288944;28;20054;-61
2024/02/18 01:38:50;;;;;;;3.60;2.30;;;;;;;7.86;67.02;101614.03;10258375;28;20050;-60
2024/02/18 01:43:53;;;;;;;72.95;4.53;;;;;;;7.91;67.03;101606.97;10298267;28;21206;-61
2024/02/18 01:48:55;;;;;;;27.17;3.17;;;;;;;7.81;67.18;101621.06;10301458;28;20506;-60
2024/02/18 01:53:58;;;;;;;43.72;2.85;;;;;;;7.77;67.23;101621.19;10303395;28;20520;-60
2024/02/18 01:59:00;;;;;;;31.55;4.00;;;;;;;7.69;67.22;101621.31;10303912;28;20043;-60
2024/02/18 02:04:02;;;;;;;110.78;4.22;;;;;;;7.62;67.17;101616.28;10301366;28;20081;-61
2024/02/18 02:09:05;;;;;;;25.25;2.88;;;;;;;7.55;67.25;101607.75;10300192;28;20054;-61
2024/02/18 02:14:07;;;;;;;4.03;2.35;;;;;;;7.39;67.29;101601.13;10304291;28;20398;-61
2024/02/18 02:19:08;;;;;;;19.45;3.33;;;;;;;7.35;67.36;101591.69;10302521;28;20042;-61
2024/02/18 02:24:11;;;;;;;4.03;2.05;;;;;;;7.31;67.29;101586.56;10298826;28;20068;-61
2024/02/18 02:29:15;;;;;;;76.30;3.40;;;;;;;7.10;67.38;101593.06;10301855;28;20056;-61
2024/02/18 02:34:17;;;;;;;87.45;4.57;;;;;;;7.02;67.74;101589.75;10304972;28;20042;-62
2024/02/18 02:39:20;;;;;;;68.28;3.65;;;;;;;6.97;67.71;101591.56;10304942;28;20509;-61
2024/02/18 02:44:22;;;;;;;17.17;2.40;;;;;;;6.98;67.91;101593.28;10301602;28;20051;-61
2024/02/18 02:49:24;;;;;;;67.68;3.80;;;;;;;6.98;67.92;101578.53;10303005;28;20051;-61
2024/02/18 02:54:27;;;;;;;85.78;5.20;;;;;;;6.94;67.51;101563.88;10298412;28;20054;-61
2024/02/18 02:59:32;;;;;;;7.70;2.53;;;;;;;6.85;67.67;101574.47;10301836;28;20039;-61
2024/02/18 03:04:34;;;;;;;50.78;3.72;;;;;;;6.94;67.79;101565.59;10302219;28;21004;-61
2024/02/18 03:09:36;;;;;;;57.05;3.05;;;;;;;6.89;67.71;101572.66;10307215;28;20119;-61
2024/02/18 03:14:38;;;;;;;7.82;2.42;;;;;;;6.84;67.84;101571.88;10305208;28;20046;-61
2024/02/18 03:19:40;;;;;;;67.93;3.47;;;;;;;6.77;67.96;101567.69;10305010;28;20169;-60
2024/02/18 03:24:43;;;;;;;96.05;4.18;;;;;;;6.75;67.93;101567.72;10306783;28;20051;-60
2024/02/18 03:29:46;;;;;;;30.00;2.25;;;;;;;6.70;67.82;101558.25;10323412;28;20133;-60
2024/02/18 03:34:49;;;;;;;204.82;7.35;;;;;;;6.66;67.89;101554.88;10293438;28;20501;-60
2024/02/18 03:39:51;;;;;;;116.78;4.88;;;;;;;6.46;67.87;101556.09;10305544;28;20043;-60
2024/02/18 03:44:53;;;;;;;43.42;2.90;;;;;;;6.43;68.15;101549.22;10290521;28;20541;-60
2024/02/18 03:49:55;;;;;;;32.40;2.55;;;;;;;6.47;68.05;101542.25;10304616;28;20049;-60
2024/02/18 03:54:58;;;;;;;62.17;3.53;;;;;;;6.52;68.21;101538.66;10271047;28;20057;-60
2024/02/18 04:00:00;;;;;;;104.22;3.97;;;;;;;6.46;68.53;101541.38;10290762;28;20313;-60
2024/02/18 04:05:09;;;;;;;207.15;6.15;;;;;;;6.66;68.21;101530.59;10301129;28;20137;-60
2024/02/18 04:10:11;;;;;;;195.60;7.95;;;;;;;6.59;68.05;101526.41;10303323;28;20495;-60
2024/02/18 04:15:14;;;;;;;170.80;5.60;;;;;;;6.56;68.08;101521.25;10288884;28;20133;-60
2024/02/18 04:20:16;;;;;;;43.90;4.75;;;;;;;6.35;68.13;101512.97;10304377;28;20050;-61
2024/02/18 04:25:18;;;;;;;34.50;2.90;;;;;;;6.32;68.49;101515.63;10304222;28;20554;-61
2024/02/18 04:30:20;;;;;;;3.03;1.63;;;;;;;6.35;68.25;101510.38;10303560;28;20038;-59
2024/02/18 04:35:22;;;;;;;24.63;3.08;;;;;;;6.30;68.09;101525.19;10287575;28;20141;-62
2024/02/18 04:40:24;;;;;;;137.68;5.10;;;;;;;6.24;68.04;101520.06;10295239;28;20048;-59
2024/02/18 04:45:26;;;;;;;74.60;4.50;;;;;;;6.20;67.98;101520.16;10303721;28;20046;-60
2024/02/18 04:50:29;;;;;;;63.10;3.20;;;;;;;6.12;68.39;101516.81;10303909;28;20092;-60
2024/02/18 04:55:31;;;;;;;48.97;3.45;;;;;;;6.13;68.08;101514.19;10307037;28;20149;-60
2024/02/18 05:00:33;;;;;;;23.48;2.15;;;;;;;6.00;68.53;101504.03;10301425;28;20100;-60
2024/02/18 05:05:35;;;;;;;11.55;2.22;;;;;;;6.00;67.97;101506.63;10302466;28;20173;-60
2024/02/18 05:10:37;;;;;;;53.95;3.35;;;;;;;5.93;68.33;101492.88;10304406;28;20038;-60
2024/02/18 05:15:39;;;;;;;12.35;2.38;;;;;;;5.93;68.45;101489.41;10305920;28;20058;-60
2024/02/18 05:20:41;;;;;;;34.45;2.00;;;;;;;5.91;68.25;101494.63;10288280;28;20506;-60
2024/02/18 05:25:44;;;;;;;75.07;3.28;;;;;;;5.86;68.38;101491.25;10303544;28;20052;-60
2024/02/18 05:30:46;;;;;;;28.73;2.28;;;;;;;5.90;68.33;101477.34;10301799;28;20391;-60
2024/02/18 05:35:49;;;;;;;6.88;1.80;;;;;;;5.89;68.09;101483.44;10289312;28;20042;-60
2024/02/18 05:40:51;;;;;;;72.82;4.60;;;;;;;5.88;68.10;101476.50;10301336;28;20050;-62
2024/02/18 05:45:53;;;;;;;14.02;2.13;;;;;;;5.94;68.08;101465.19;10304561;28;20124;-61
2024/02/18 05:50:55;;;;;;;104.22;5.25;;;;;;;5.86;68.08;101460.09;10288939;28;20062;-61
2024/02/18 05:55:57;;;;;;;38.58;3.15;;;;;;;5.86;68.00;101460.09;10304732;28;20073;-61
2024/02/18 06:00:59;;;;;;;98.68;4.18;;;;;;;5.91;67.80;101463.47;10303802;28;20050;-61
2024/02/18 06:06:01;;;;;;;44.65;3.95;;;;;;;5.89;67.76;101454.88;10290314;28;20491;-60
2024/02/18 06:11:07;;;;;;;78.03;2.75;;;;;;;5.78;67.74;101453.34;10302749;28;20133;-61
2024/02/18 06:16:09;;;;;;;79.63;3.08;;;;;;;5.70;67.82;101448.25;10302900;28;20068;-61
2024/02/18 06:21:21;;;;;;;54.95;2.72;;;;;;;5.56;67.75;101434.63;10290381;28;20054;-61
2024/02/18 06:26:23;;;;;;;22.95;1.70;;;;;;;5.42;67.88;101441.75;10301420;28;20674;-61
2024/02/18 06:31:25;;;;;;;4.00;1.75;;;;;;;5.60;68.22;101438.03;10291377;28;20563;-60
2024/02/18 06:36:28;;;;;;;57.63;3.17;;;;;;;5.70;67.88;101447.38;10302365;28;20625;-60
2024/02/18 06:41:31;;;;;;;87.32;4.82;;;;;;;5.75;67.90;101443.84;10306863;28;20050;-60
2024/02/18 06:46:33;;;;;;;28.05;2.35;;;;;;;5.85;67.51;101435.03;10308089;28;20055;-61
2024/02/18 06:51:35;;;;;;;80.90;5.22;;;;;;;5.70;67.82;101435.25;10308083;28;20465;-60
2024/02/18 06:56:37;;;;;;;45.25;3.10;;;;;;;5.69;68.10;101425.78;10307231;28;20217;-60
2024/02/18 07:01:39;;;;;;;71.80;3.42;;;;;;;5.80;67.97;101423.84;10307125;28;20049;-60
2024/02/18 07:06:41;;;;;;;58.38;2.78;;;;;;;5.85;67.37;101418.59;10308217;28;20054;-60
2024/02/18 07:11:43;;;;;;;69.28;3.45;;;;;;;5.82;67.30;101413.47;10304405;28;20049;-60
2024/02/18 07:16:45;;;;;;;77.45;3.42;;;;;;;5.81;67.33;101404.81;10302268;28;20442;-61
2024/02/18 07:21:47;;;;;;;170.25;5.32;;;;;;;5.96;67.50;101407.13;10309629;28;20137;-60
2024/02/18 07:26:49;;;;;;;142.18;5.35;;;;;;;6.10;67.25;101406.91;10309578;28;20050;-60
2024/02/18 07:31:51;;;;;;;36.92;2.63;;;;;;;6.29;67.21;101408.28;10287245;28;20078;-60
2024/02/18 07:36:54;;;;;;;17.83;2.83;;;;;;;6.28;67.11;101402.25;10304144;28;20147;-60
2024/02/18 07:41:56;;;;;;;106.38;5.10;;;;;;;6.21;67.31;101395.41;10307862;28;20107;-60
2024/02/18 07:46:59;;;;;;;55.25;3.63;;;;;;;6.26;67.12;101397.97;10299017;28;20042;-60
2024/02/18 07:52:01;;;;;;;77.68;3.42;;;;;;;6.25;66.99;101406.63;10299060;28;20050;-60
2024/02/18 07:57:03;;;;;;;37.30;2.30;;;;;;;6.32;67.17;101395.25;10301225;28;20031;-59
2024/02/18 08:02:05;;;;;;;125.28;5.82;;;;;;;6.26;66.89;101378.06;10299906;28;20057;-60
2024/02/18 08:07:07;;;;;;;63.72;3.25;;;;;;;6.26;67.20;101371.97;10297090;28;20055;-61
2024/02/18 08:12:09;;;;;;;214.05;5.85;;;;;;;6.40;66.74;101371.72;10295898;28;20054;-56
2024/02/18 08:17:11;;;;;;;100.53;4.85;;;;;;;6.52;66.59;101376.66;10305599;28;20061;-54
2024/02/18 08:22:13;;;;;;;61.13;3.05;;;;;;;6.53;67.04;101379.22;10298925;28;20046;-55
2024/02/18 08:27:16;;;;;;;85.07;3.72;;;;;;;6.69;66.70;101375.44;10282261;28;20042;-55
2024/02/18 08:32:18;;;;;;;127.90;4.20;;;;;;;6.76;66.52;101374.41;10287733;28;20043;-56
2024/02/18 08:37:20;;;;;;;77.88;4.85;;;;;;;6.78;66.49;101382.16;10293324;28;20198;-53
2024/02/18 08:42:22;;;;;;;105.45;3.88;;;;;;;6.72;66.42;101377.97;10269060;28;20038;-56
2024/02/18 08:47:24;;;;;;;77.25;3.60;;;;;;;6.75;66.29;101372.72;10292312;28;21157;-53
2024/02/18 08:52:26;;;;;;;20.60;2.30;;;;;;;7.07;66.16;101354.66;10292879;28;20611;-54
2024/02/18 08:57:28;;;;;;;20.15;2.17;;;;;;;7.31;65.74;101345.41;10294906;28;20054;-55
2024/02/18 09:02:30;;;;;;;5.20;2.38;;;;;;;7.11;65.33;101339.81;10298112;28;20192;-56
2024/02/18 09:07:32;;;;;;;49.50;3.42;;;;;;;7.05;65.44;101326.94;10286842;28;20050;-56
2024/02/18 09:12:34;;;;;;;7.50;2.83;;;;;;;7.10;65.56;101312.09;10284583;28;20059;-56
2024/02/18 09:17:36;;;;;;;4.30;2.00;;;;;;;7.17;65.76;101298.03;10289627;28;20103;-56
2024/02/18 09:22:39;;;;;;;8.13;2.40;;;;;;;7.12;65.83;101292.13;10297623;28;20486;-52
2024/02/18 09:27:41;;;;;;;10.32;3.17;;;;;;;7.10;66.25;101281.72;10311973;28;20050;-55
2024/02/18 09:32:44;;;;;;;17.23;3.10;;;;;;;7.14;65.99;101278.16;10288643;28;20042;-50
2024/02/18 09:37:47;;;;;;;24.73;2.65;;;;;;;7.16;66.08;101270.34;10305419;28;20511;-55
2024/02/18 09:42:52;;;;;;;45.38;3.30;;;;;;;7.34;65.91;101266.41;10283108;28;20157;-56
2024/02/18 09:47:56;;;;;;;5.00;2.97;;;;;;;7.33;65.82;101268.16;10308753;28;20131;-56
2024/02/18 09:53:01;;;;;;;6.47;2.65;;;;;;;7.40;66.10;101253.25;10295395;28;20052;-55
2024/02/18 09:58:03;;;;;;;5.90;2.83;;;;;;;7.61;65.70;101243.09;10293231;28;20045;-55
2024/02/18 10:03:08;;;;;;;4.65;2.13;;;;;;;7.72;65.48;101240.22;10307037;28;20058;-56
2024/02/18 10:08:11;;;;;;;6.85;2.53;;;;;;;7.74;65.41;101235.81;10306005;28;20048;-55
2024/02/18 10:13:15;;;;;;;4.50;2.45;;;;;;;7.83;65.23;101218.19;10299922;28;20459;-55
2024/02/18 10:18:19;;;;;;;4.90;2.60;;;;;;;8.06;64.99;101221.91;10293237;28;20042;-54
2024/02/18 10:23:21;;;;;;;4.57;2.65;;;;;;;8.01;64.91;101209.88;10296878;28;20635;-56
2024/02/18 10:28:24;;;;;;;4.78;2.70;;;;;;;7.85;65.16;101208.56;10293811;28;20042;-53
2024/02/18 10:33:26;;;;;;;5.25;2.95;;;;;;;7.90;65.38;101211.06;10287854;28;20654;-53
2024/02/18 10:38:31;;;;;;;5.22;2.97;;;;;;;8.16;65.27;101198.16;10300766;28;20050;-55
2024/02/18 10:43:43;;;;;;;4.22;2.42;;;;;;;8.31;65.09;101183.81;10270192;28;20388;-56
2024/02/18 10:48:54;;;;;;;5.85;3.20;;;;;;;8.49;64.22;101173.66;10292143;28;20119;-51
2024/02/18 10:54:16;;;;;;;;;;;;;;;8.49;64.20;101167.59;10287031;28;20600;-57
2024/02/18 10:59:28;;;;;;;4.43;2.40;;;;;;;8.65;64.44;101150.56;10270078;28;19948;-58
2024/02/18 11:04:30;;;;;;;6.97;2.42;;;;;;;8.83;64.53;101156.03;10305478;28;20054;-54
2024/02/18 11:09:35;;;;;;;4.07;2.45;;;;;;;9.07;64.15;101140.47;10303577;28;20054;-55
2024/02/18 11:14:38;;;;;;;7.75;2.80;;;;;;;8.99;64.13;101140.72;10301371;28;20050;-55
2024/02/18 11:19:41;;;;;;;4.18;2.17;;;;;;;9.10;63.88;101122.94;10313993;28;20053;-54
2024/02/18 11:24:47;;;;;;;2.88;1.70;;;;;;;9.29;63.18;101099.66;10300707;28;20725;-57
2024/02/18 11:29:51;;;;;;;3.40;2.10;;;;;;;9.65;63.11;101091.31;10305369;28;20057;-55
2024/02/18 11:34:55;;;;;;;3.45;2.25;;;;;;;9.85;61.89;101084.53;10302878;28;20191;-56
2024/02/18 11:40:06;;;;;;;2.55;1.55;;;;;;;9.88;61.47;101069.56;10303020;28;20195;-55
2024/02/18 11:45:23;;;;;;;2.30;1.20;;;;;;;9.94;59.48;101065.84;10298335;28;20043;-57
2024/02/18 11:50:25;;;;;;;4.57;1.27;;;;;;;9.80;59.88;101060.31;10310924;28;20057;-58
2024/02/18 11:55:27;;;;;;;4.20;1.23;;;;;;;10.06;60.38;101045.31;10301136;28;20062;-56
2024/02/18 12:00:30;;;;;;;2.95;1.50;;;;;;;10.15;59.34;101047.59;10307047;28;20232;-57
2024/02/18 12:05:32;;;;;;;2.80;1.50;;;;;;;10.17;58.90;101039.66;10305148;28;20051;-57
2024/02/18 12:10:34;;;;;;;2.63;1.20;;;;;;;10.12;58.85;101039.00;10308636;28;20047;-56
2024/02/18 12:15:39;;;;;;;2.45;1.50;;;;;;;10.25;57.56;101034.97;10303173;28;20054;-54
2024/02/18 12:20:47;;;;;;;0.93;0.90;;;;;;;10.36;58.09;101032.75;10304334;28;20246;-57
2024/02/18 12:25:50;;;;;;;5.45;1.52;;;;;;;10.62;57.30;101023.84;10298248;28;20062;-56
2024/02/18 12:30:53;;;;;;;1.40;1.30;;;;;;;10.73;56.18;101017.22;10311239;28;20217;-56
2024/02/18 12:35:56;;;;;;;1.73;1.33;;;;;;;10.92;56.79;100999.81;10310727;28;20055;-57
2024/02/18 12:40:58;;;;;;;2.88;1.40;;;;;;;11.28;55.31;100984.22;10300875;28;20051;-56
2024/02/18 12:46:00;;;;;;;1.80;1.00;;;;;;;11.42;55.39;100946.94;10308555;28;20046;-56
2024/02/18 12:51:14;;;;;;;2.38;1.00;;;;;;;11.60;54.00;100940.81;10299763;28;20050;-59
2024/02/18 12:56:17;;;;;;;1.27;1.13;;;;;;;11.58;54.40;100926.94;10307018;28;20162;-54
2024/02/18 13:01:19;;;;;;;2.42;1.15;;;;;;;11.46;55.13;100904.78;10306837;28;20490;-57
2024/02/18 13:06:22;;;;;;;1.95;1.17;;;;;;;11.53;54.96;100905.34;10307882;28;20057;-57
2024/02/18 13:11:25;;;;;;;3.00;1.20;;;;;;;11.54;55.04;100904.44;10309871;28;20046;-57
2024/02/18 13:16:28;;;;;;;4.82;1.10;;;;;;;11.45;55.12;100881.28;10308800;28;20046;-57
2024/02/18 13:21:29;;;;;;;1.55;1.00;;;;;;;11.15;55.58;100862.69;10310778;28;20058;-59
2024/02/18 13:26:33;;;;;;;1.20;0.88;;;;;;;10.96;56.01;100852.19;10303152;28;20050;-58
2024/02/18 13:31:35;;;;;;;2.05;1.20;;;;;;;10.80;56.10;100859.06;10288142;28;20568;-57
2024/02/18 13:36:39;;;;;;;1.33;1.08;;;;;;;10.68;56.45;100846.53;10276927;28;20062;-57
2024/02/18 13:41:45;;;;;;;2.30;1.13;;;;;;;10.48;56.36;100841.34;10305032;28;20055;-58
2024/02/18 13:46:47;;;;;;;2.97;1.10;;;;;;;10.41;57.02;100824.22;10306584;28;20061;-56
2024/02/18 13:51:50;;;;;;;1.15;1.00;;;;;;;10.39;57.29;100829.53;10304177;28;20070;-58
2024/02/18 13:56:52;;;;;;;1.63;0.90;;;;;;;10.40;57.48;100835.59;10287378;28;20589;-56
2024/02/18 14:01:54;;;;;;;2.45;1.13;;;;;;;10.34;58.01;100828.88;10303214;28;20050;-57
2024/02/18 14:06:57;;;;;;;1.70;1.10;;;;;;;10.30;58.43;100842.16;10303895;28;20058;-58
2024/02/18 14:12:04;;;;;;;1.25;0.90;;;;;;;10.24;59.08;100831.97;10301922;28;20103;-58
2024/02/18 14:17:08;;;;;;;2.42;1.40;;;;;;;10.31;59.22;100829.03;10286270;28;20050;-56
2024/02/18 14:22:10;;;;;;;1.25;1.00;;;;;;;10.12;59.77;100811.59;10299256;28;20126;-56
2024/02/18 14:27:12;;;;;;;1.65;1.10;;;;;;;9.99;60.29;100806.03;10295957;28;20045;-57
2024/02/18 14:32:14;;;;;;;3.25;1.67;;;;;;;10.03;60.54;100804.16;10297949;28;20050;-58
2024/02/18 14:37:17;;;;;;;4.22;1.30;;;;;;;9.92;60.58;100790.72;10296641;28;20049;-58
2024/02/18 14:42:19;;;;;;;3.58;1.02;;;;;;;9.77;61.00;100786.16;10300039;28;20046;-57
2024/02/18 14:47:21;;;;;;;2.42;1.27;;;;;;;9.73;61.30;100787.22;10314286;28;20036;-58
2024/02/18 14:52:23;;;;;;;2.35;1.63;;;;;;;9.75;61.43;100793.22;10309277;28;20058;-57
2024/02/18 14:57:25;;;;;;;2.78;1.35;;;;;;;9.70;61.97;100782.09;10300729;28;20050;-58
2024/02/18 15:02:29;;;;;;;3.17;1.48;;;;;;;9.67;62.18;100771.78;10304645;28;20037;-57
2024/02/18 15:07:31;;;;;;;1.70;1.20;;;;;;;9.59;62.08;100736.38;10251152;28;20051;-58
2024/02/18 15:12:33;;;;;;;1.15;1.05;;;;;;;9.47;62.58;100717.75;10228639;28;20419;-57
2024/02/18 15:17:35;;;;;;;1.55;0.93;;;;;;;9.36;63.04;100730.44;10230567;28;20760;-60
2024/02/18 15:22:37;;;;;;;2.60;1.13;;;;;;;9.36;63.11;100736.47;10227726;28;20043;-58
2024/02/18 15:27:39;;;;;;;3.28;1.73;;;;;;;9.32;63.44;100734.91;10227316;28;20047;-58
2024/02/18 15:32:42;;;;;;;2.00;1.40;;;;;;;9.22;63.44;100744.03;10230551;28;20052;-57
2024/02/18 15:37:44;;;;;;;1.88;1.33;;;;;;;9.14;63.76;100720.03;10229924;28;20058;-58
2024/02/18 15:42:47;;;;;;;3.92;1.83;;;;;;;9.22;64.11;100707.50;10230510;28;20478;-57
2024/02/18 15:47:49;;;;;;;2.20;1.35;;;;;;;9.08;64.44;100709.84;10227057;28;20050;-57
2024/02/18 15:52:51;;;;;;;2.35;1.30;;;;;;;9.01;64.85;100699.72;10232422;28;20066;-58
2024/02/18 15:57:54;;;;;;;2.55;1.45;;;;;;;9.02;64.81;100694.44;10225239;28;20048;-56
2024/02/18 16:02:56;;;;;;;2.15;1.30;;;;;;;8.95;64.91;100682.56;10223134;28;20519;-57
2024/02/18 16:07:58;;;;;;;1.88;1.15;;;;;;;8.95;64.97;100676.50;10281738;28;20050;-56
2024/02/18 16:13:01;;;;;;;3.70;1.35;;;;;;;8.67;65.86;100681.97;10303042;28;20049;-58
2024/02/18 16:18:04;;;;;;;2.08;1.52;;;;;;;8.66;65.62;100669.84;10308807;28;20848;-57
2024/02/18 16:23:06;;;;;;;2.60;1.60;;;;;;;8.73;65.58;100672.13;10308609;28;20145;-56
2024/02/18 16:28:09;;;;;;;1.77;1.45;;;;;;;8.70;65.93;100666.22;10294457;28;20046;-58
2024/02/18 16:33:12;;;;;;;4.55;1.42;;;;;;;8.70;65.86;100663.59;10310238;28;20116;-57
2024/02/18 16:38:14;;;;;;;2.10;1.27;;;;;;;8.74;65.84;100654.75;10307147;28;20077;-56
2024/02/18 16:43:16;;;;;;;4.63;1.63;;;;;;;8.64;66.10;100649.06;10301156;28;20050;-57
2024/02/18 16:54:43;;;;;;;2.15;1.40;;;;;;;8.23;67.22;100636.81;10542664;27;20527;-56
2024/02/18 16:59:46;;;;;;;2.90;1.55;;;;;;;8.35;67.16;100628.50;10511966;28;20123;-56
2024/02/18 17:04:47;;;;;;;1.85;1.30;;;;;;;8.43;67.12;100630.81;10492038;28;20144;-56
2024/02/18 17:09:51;;;;;;;1.95;1.40;;;;;;;8.41;67.38;100609.16;10511628;28;20055;-55
2024/02/18 17:14:53;;;;;;;2.22;1.50;;;;;;;8.39;67.52;100609.25;10485431;28;20044;-56
2024/02/18 17:19:55;;;;;;;1.92;1.25;;;;;;;8.44;67.27;100603.84;10507377;28;20507;-56
2024/02/18 17:24:59;;;;;;;3.70;1.52;;;;;;;8.38;67.36;100591.06;10504257;28;20055;-56
2024/02/18 17:30:01;;;;;;;1.40;0.95;;;;;;;8.38;67.70;100597.13;10503222;28;20278;-55
2024/02/18 17:39:43;;;;;;;3.75;1.17;;;;;;;8.18;67.85;100596.22;10498279;27;20718;-56
2024/02/18 17:44:45;;;;;;;2.95;1.20;;;;;;;8.25;67.92;100592.44;10497817;28;20040;-56
2024/02/18 17:49:47;;;;;;;2.55;0.88;;;;;;;8.35;67.61;100588.56;10496372;28;20133;-57
2024/02/18 17:54:50;;;;;;;3.03;1.67;;;;;;;8.39;67.56;100590.13;10498164;28;20040;-58
2024/02/18 17:59:53;;;;;;;1.42;0.90;;;;;;;8.43;67.48;100589.09;10500541;28;20067;-63
2024/02/18 18:04:57;;;;;;;3.97;1.55;;;;;;;8.47;67.43;100585.47;10502903;28;20119;-64
2024/02/18 18:09:59;;;;;;;1.05;0.95;;;;;;;8.41;67.48;100594.38;10503528;28;20052;-64
2024/02/18 18:15:03;;;;;;;1.38;1.00;;;;;;;8.48;67.52;100614.09;10503208;28;20054;-63
2024/02/18 18:20:06;;;;;;;1.48;1.00;;;;;;;8.58;67.22;100609.34;10487977;28;20078;-64
2024/02/18 18:25:09;;;;;;;3.50;1.27;;;;;;;8.66;67.22;100615.09;10502743;28;20050;-63
2024/02/18 18:30:11;;;;;;;1.15;0.82;;;;;;;8.71;67.06;100610.53;10502150;28;20088;-63
2024/02/18 18:35:13;;;;;;;1.55;1.10;;;;;;;8.62;67.22;100611.78;10497216;28;20181;-63
2024/02/18 18:40:15;;;;;;;2.45;1.00;;;;;;;8.60;67.31;100607.53;10503071;28;20047;-63
2024/02/18 18:45:18;;;;;;;0.80;0.80;;;;;;;8.70;67.13;100601.03;10500450;28;20056;-64
2024/02/18 18:50:20;;;;;;;1.55;1.15;;;;;;;8.73;66.97;100588.69;10480466;28;20068;-64
2024/02/18 18:55:22;;;;;;;2.65;0.80;;;;;;;8.67;67.20;100588.94;10474577;28;20135;-64
2024/02/18 19:00:28;;;;;;;3.42;1.50;;;;;;;8.72;67.11;100589.63;10441336;28;20052;-63
2024/02/18 19:05:30;;;;;;;6.95;3.25;;;;;;;8.69;67.27;100584.50;10474042;28;20509;-63
2024/02/18 19:10:34;;;;;;;4.38;1.90;;;;;;;8.60;67.81;100571.88;10474721;28;20040;-63
2024/02/18 19:15:36;;;;;;;1.05;0.98;;;;;;;8.53;68.35;100582.59;10474019;28;20394;-63
2024/02/18 19:20:38;;;;;;;2.47;1.20;;;;;;;8.57;68.19;100586.78;10474997;28;20052;-63
2024/02/18 19:25:41;;;;;;;1.70;1.20;;;;;;;8.51;68.80;100581.81;10475224;28;20040;-64
2024/02/18 19:30:43;;;;;;;2.38;1.48;;;;;;;8.41;69.43;100580.50;10474660;28;20045;-65
2024/02/18 19:35:45;;;;;;;1.63;1.00;;;;;;;8.32;69.83;100586.09;10471998;28;20416;-63
2024/02/18 19:40:47;;;;;;;0.70;0.70;;;;;;;8.28;70.10;100576.72;10467263;28;20055;-64
2024/02/18 19:45:49;;;;;;;1.75;1.00;;;;;;;8.45;69.33;100582.06;10467075;28;20045;-64
2024/02/18 19:50:51;;;;;;;0.70;0.70;;;;;;;8.38;69.83;100578.03;10475367;28;20041;-65
2024/02/18 19:55:53;;;;;;;1.80;1.42;;;;;;;8.45;70.16;100579.47;10478062;28;20580;-65
2024/02/18 20:00:55;;;;;;;1.08;0.90;;;;;;;8.60;69.44;100569.28;10477216;28;20497;-64
2024/02/18 20:05:57;;;;;;;1.35;0.98;;;;;;;8.54;70.21;100586.91;10476796;28;20048;-64
2024/02/18 20:10:59;;;;;;;2.63;0.82;;;;;;;8.62;69.81;100587.44;10477192;28;20110;-64
2024/02/18 20:16:03;;;;;;;2.25;1.25;;;;;;;8.69;69.19;100587.13;10475703;28;20143;-64
2024/02/18 20:21:06;;;;;;;1.40;0.90;;;;;;;8.70;69.34;100595.81;10475195;28;20058;-64
2024/02/18 20:26:19;;;;;;;1.30;0.98;;;;;;;8.87;68.65;100593.34;10476141;28;20167;-64
2024/02/18 20:31:21;;;;;;;1.00;0.73;;;;;;;8.98;68.37;100603.31;10476592;28;20040;-64
2024/02/18 20:36:23;;;;;;;1.48;1.00;;;;;;;9.01;68.38;100593.63;10470228;28;20412;-64
2024/02/18 20:41:25;;;;;;;1.52;1.10;;;;;;;9.09;68.17;100583.69;10466966;28;20688;-64
2024/02/18 20:46:27;;;;;;;5.10;1.15;;;;;;;9.19;67.94;100579.75;10465141;28;20866;-64
2024/02/18 20:51:29;;;;;;;3.67;1.00;;;;;;;9.19;67.90;100574.53;10470021;28;20052;-64
2024/02/18 20:56:31;;;;;;;1.42;1.00;;;;;;;9.14;68.39;100578.25;10464584;28;20049;-64
2024/02/18 21:01:34;;;;;;;1.85;1.10;;;;;;;9.15;68.18;100578.19;10469799;28;20454;-64
2024/02/18 21:06:36;;;;;;;1.73;1.02;;;;;;;9.05;68.69;100584.75;10468747;28;20072;-64
2024/02/18 21:11:40;;;;;;;2.45;1.17;;;;;;;9.25;67.88;100586.47;10468737;28;20040;-64
2024/02/18 21:16:43;;;;;;;1.55;1.10;;;;;;;9.27;67.83;100592.47;10470110;28;20617;-64
2024/02/18 21:21:45;;;;;;;1.85;1.10;;;;;;;9.23;67.67;100601.34;10471690;28;20438;-64
2024/02/18 21:26:47;;;;;;;1.88;1.35;;;;;;;9.29;67.55;100609.75;10465235;28;20127;-64
2024/02/18 21:31:49;;;;;;;4.72;1.30;;;;;;;9.43;67.25;100606.53;10465757;28;20177;-64
2024/02/18 21:36:52;;;;;;;2.42;1.50;;;;;;;9.33;67.46;100603.50;10471261;28;20058;-65
2024/02/18 21:41:55;;;;;;;2.40;1.45;;;;;;;9.41;67.39;100600.53;10473489;28;20289;-65
2024/02/18 21:46:58;;;;;;;2.55;1.42;;;;;;;9.44;67.52;100606.47;10472245;28;20055;-64
2024/02/18 21:52:00;;;;;;;2.03;1.25;;;;;;;9.30;67.76;100616.66;10472705;28;20153;-64
2024/02/18 21:57:02;;;;;;;1.33;1.08;;;;;;;9.30;68.03;100618.44;10471511;28;20048;-64
2024/02/18 22:02:05;;;;;;;3.92;1.40;;;;;;;9.26;68.20;100616.88;10469334;28;20083;-65
2024/02/18 22:07:07;;;;;;;2.55;1.42;;;;;;;9.13;68.68;100616.56;10469530;28;20083;-64
2024/02/18 22:12:18;;;;;;;2.40;1.60;;;;;;;8.92;69.57;100611.38;10473215;28;20076;-65
2024/02/18 22:17:20;;;;;;;2.13;1.30;;;;;;;9.00;69.17;100609.31;10471703;28;20048;-64
2024/02/18 22:22:22;;;;;;;5.28;1.77;;;;;;;8.90;69.60;100601.03;10472742;28;20045;-65
2024/02/18 22:27:24;;;;;;;1.85;1.33;;;;;;;8.99;69.27;100600.66;10476943;28;20553;-64
2024/02/18 22:32:26;;;;;;;3.00;1.13;;;;;;;9.02;69.08;100618.78;10473057;28;20041;-64
2024/02/18 22:37:28;;;;;;;1.92;1.23;;;;;;;9.18;68.48;100622.41;10471546;28;20063;-64
2024/02/18 22:42:30;;;;;;;1.13;0.82;;;;;;;9.06;68.88;100637.75;10476666;28;20044;-64
2024/02/18 22:47:33;;;;;;;1.55;0.93;;;;;;;9.13;68.73;100621.78;10478728;28;20052;-64
2024/02/18 22:52:35;;;;;;;0.95;0.80;;;;;;;9.24;68.42;100622.16;10473807;28;20055;-64
2024/02/18 22:57:37;;;;;;;1.20;0.90;;;;;;;9.16;68.70;100624.25;10479447;28;20507;-64
2024/02/18 23:02:39;;;;;;;1.38;1.00;;;;;;;9.20;68.56;100630.22;10477843;28;20041;-64
2024/02/18 23:07:42;;;;;;;1.65;1.40;;;;;;;9.35;68.18;100638.22;10478513;28;20041;-64
2024/02/18 23:12:46;;;;;;;3.47;1.60;;;;;;;9.33;68.03;100637.44;10472465;28;20051;-64
2024/02/18 23:17:49;;;;;;;2.53;1.55;;;;;;;9.34;67.82;100646.94;10478280;28;20037;-65
2024/02/18 23:22:51;;;;;;;2.63;1.55;;;;;;;9.22;68.04;100638.81;10473850;28;20044;-64
2024/02/18 23:27:53;;;;;;;3.85;1.63;;;;;;;9.25;67.82;100655.19;10478205;28;20044;-64
2024/02/18 23:32:55;;;;;;;2.20;1.05;;;;;;;9.29;67.81;100672.41;10475516;28;20129;-64